Time;durP1;ratioP1;P1;durP2;ratioP2;P2;SDS_P1;SDS_P2;PMS_P1;PMS_P2;Temp;Humidity;BMP_temperature;BMP_pressure;BME280_temperature;BME280_humidity;BME280_pressure;Samples;Min_cycle;Max_cycle;Signal;HPM_P1;HPM_P2
2021/05/11 00:01:38;;;;;;;8.82;3.65;;;16.90;65.00;;;;;;5115705;28;20487;-69
2021/05/11 00:04:04;;;;;;;7.18;3.40;;;16.90;64.80;;;;;;5116019;28;20065;-69
2021/05/11 00:06:29;;;;;;;11.25;3.80;;;16.90;65.30;;;;;;5115975;28;20020;-70
2021/05/11 00:08:55;;;;;;;12.20;3.95;;;16.90;65.10;;;;;;5115500;28;20136;-70
2021/05/11 00:11:21;;;;;;;6.40;3.60;;;16.90;66.70;;;;;;5115384;28;20028;-70
2021/05/11 00:13:47;;;;;;;10.43;3.75;;;16.80;65.70;;;;;;5115207;28;20035;-69
2021/05/11 00:16:13;;;;;;;11.63;4.05;;;16.80;65.70;;;;;;5115329;28;20039;-69
2021/05/11 00:18:39;;;;;;;7.40;3.55;;;16.80;65.50;;;;;;5115513;28;20027;-70
2021/05/11 00:21:05;;;;;;;6.68;3.63;;;16.80;65.90;;;;;;5115528;28;20031;-70
2021/05/11 00:23:31;;;;;;;8.35;3.55;;;16.80;65.70;;;;;;5115342;28;20019;-69
2021/05/11 00:25:56;;;;;;;9.32;3.42;;;16.70;66.10;;;;;;5115346;28;20398;-69
2021/05/11 00:28:23;;;;;;;8.27;3.92;;;16.70;66.50;;;;;;5115350;28;20019;-69
2021/05/11 00:30:49;;;;;;;11.80;3.90;;;16.70;65.70;;;;;;5115439;28;20380;-69
2021/05/11 00:33:16;;;;;;;7.45;3.90;;;16.70;65.50;;;;;;5115162;28;20057;-69
2021/05/11 00:35:42;;;;;;;4.75;3.38;;;16.60;65.60;;;;;;5115256;28;20122;-69
2021/05/11 00:38:07;;;;;;;6.57;3.30;;;16.60;65.00;;;;;;5114844;28;20511;-69
2021/05/11 00:40:33;;;;;;;5.70;2.40;;;16.60;65.30;;;;;;5115112;28;20023;-69
2021/05/11 00:42:59;;;;;;;4.63;2.70;;;16.50;65.40;;;;;;5115161;28;20066;-70
2021/05/11 00:45:24;;;;;;;7.18;2.80;;;16.50;65.40;;;;;;5115067;28;20024;-69
2021/05/11 00:47:50;;;;;;;5.30;2.00;;;16.60;65.30;;;;;;5114616;28;20054;-69
2021/05/11 00:50:16;;;;;;;4.43;2.22;;;16.50;64.90;;;;;;5114925;28;20107;-69
2021/05/11 00:52:42;;;;;;;6.22;2.17;;;16.50;65.10;;;;;;5115049;28;20032;-69
2021/05/11 00:55:09;;;;;;;5.43;2.20;;;16.50;65.00;;;;;;5114905;28;20624;-70
2021/05/11 00:57:35;;;;;;;5.05;1.95;;;16.50;66.10;;;;;;5113734;28;20028;-70
2021/05/11 01:00:06;;;;;;;3.78;2.13;;;16.40;65.40;;;;;;5111947;28;20036;-70
2021/05/11 01:02:32;;;;;;;7.32;2.10;;;16.40;65.30;;;;;;5111983;28;20026;-70
2021/05/11 01:04:57;;;;;;;5.82;1.67;;;16.40;66.00;;;;;;5113574;28;20024;-69
2021/05/11 01:07:23;;;;;;;7.80;2.17;;;16.40;66.00;;;;;;5114324;28;20039;-70
2021/05/11 01:09:49;;;;;;;4.45;1.98;;;16.40;65.60;;;;;;5114351;28;20031;-69
2021/05/11 01:12:15;;;;;;;4.93;1.90;;;16.30;66.20;;;;;;5114357;28;20004;-70
2021/05/11 01:14:42;;;;;;;5.88;2.00;;;16.30;65.90;;;;;;5114476;28;20039;-68
2021/05/11 01:17:14;;;;;;;14.05;2.33;;;16.30;66.20;;;;;;5114296;28;20106;-69
2021/05/11 01:19:53;;;;;;;4.43;2.05;;;16.30;66.00;;;;;;5114066;28;20050;-69
2021/05/11 01:23:13;;;;;;;7.75;2.00;;;16.40;66.00;;;;;;5114011;28;20034;-69
2021/05/11 01:25:14;;;;;;;4.00;1.83;;;16.40;65.60;;;;;;5109149;28;20031;-69
2021/05/11 01:27:49;;;;;;;8.55;2.42;;;16.40;64.80;;;;;;5113876;28;20166;-68
2021/05/11 01:49:03;;;;;;;4.30;2.15;;;16.20;66.00;;;;;;5113518;28;20042;-69
2021/05/11 01:54:39;;;;;;;6.25;2.38;;;16.10;65.50;;;;;;5097415;28;20506;-68
2021/05/11 01:57:58;;;;;;;7.75;1.92;;;16.00;66.00;;;;;;5112365;28;20030;-68
2021/05/11 02:24:10;;;;;;;6.20;2.20;;;15.60;66.60;;;;;;5089969;28;20075;-67
2021/05/11 02:26:36;;;;;;;4.00;1.83;;;15.60;67.40;;;;;;5113322;28;20567;-68
2021/05/11 02:29:02;;;;;;;6.28;2.05;;;15.60;66.70;;;;;;5111811;28;20115;-66
2021/05/11 02:31:28;;;;;;;4.30;2.00;;;15.60;66.10;;;;;;5113100;28;20096;-66
2021/05/11 02:33:53;;;;;;;5.20;1.90;;;15.60;67.10;;;;;;5113236;28;20515;-67
2021/05/11 02:36:19;;;;;;;4.65;2.00;;;15.50;66.80;;;;;;5116139;28;20051;-69
2021/05/11 02:38:45;;;;;;;4.43;2.00;;;15.50;66.00;;;;;;5117326;28;20076;-67
2021/05/11 02:41:10;;;;;;;12.60;2.05;;;15.50;67.30;;;;;;5117245;28;20472;-67
2021/05/11 02:43:38;;;;;;;17.35;2.80;;;15.50;66.50;;;;;;5117308;28;20077;-66
2021/05/11 02:46:04;;;;;;;5.78;2.03;;;15.40;67.30;;;;;;5117921;28;20043;-69
2021/05/11 02:48:29;;;;;;;5.13;1.90;;;15.40;67.00;;;;;;5117124;28;20058;-70
2021/05/11 02:50:55;;;;;;;7.20;2.35;;;15.40;66.40;;;;;;5117374;28;20395;-70
2021/05/11 02:53:21;;;;;;;4.22;2.10;;;15.30;66.80;;;;;;5117146;28;20046;-69
2021/05/11 02:55:47;;;;;;;7.57;2.00;;;15.30;67.50;;;;;;5117189;28;20018;-69
2021/05/11 02:58:13;;;;;;;7.20;2.35;;;15.20;68.10;;;;;;5117131;28;20027;-69
2021/05/11 03:00:41;;;;;;;6.03;2.25;;;15.30;67.70;;;;;;5116935;28;20027;-70
2021/05/11 03:03:07;;;;;;;5.13;2.20;;;15.20;67.10;;;;;;5117175;28;20041;-70
2021/05/11 03:05:32;;;;;;;3.38;1.95;;;15.20;67.30;;;;;;5116900;28;20383;-69
2021/05/11 03:07:58;;;;;;;7.45;2.10;;;15.10;68.10;;;;;;5116812;28;20113;-69
2021/05/11 03:10:24;;;;;;;5.72;2.10;;;15.10;67.10;;;;;;5116869;28;20055;-69
2021/05/11 03:12:49;;;;;;;3.38;1.88;;;15.00;67.10;;;;;;5116771;28;20026;-69
2021/05/11 03:15:15;;;;;;;3.20;2.00;;;15.00;67.50;;;;;;5116760;28;20379;-69
2021/05/11 03:17:41;;;;;;;5.47;2.15;;;15.00;67.90;;;;;;5116556;28;20028;-68
2021/05/11 03:20:09;;;;;;;7.60;2.03;;;15.00;67.60;;;;;;5116377;28;20392;-67
2021/05/11 03:22:35;;;;;;;6.78;2.40;;;15.00;67.70;;;;;;5116581;28;20027;-65
2021/05/11 03:25:02;;;;;;;6.15;2.55;;;15.00;67.30;;;;;;5116694;28;20365;-66
2021/05/11 03:27:28;;;;;;;5.78;2.00;;;15.00;66.90;;;;;;5116581;28;20460;-69
2021/05/11 03:29:54;;;;;;;3.45;2.03;;;14.90;67.80;;;;;;5116296;28;20145;-69
2021/05/11 03:32:19;;;;;;;6.07;2.38;;;14.90;68.10;;;;;;5116802;28;20158;-69
2021/05/11 03:34:45;;;;;;;7.00;2.13;;;14.90;68.30;;;;;;5116852;28;20032;-69
2021/05/11 03:37:11;;;;;;;5.93;1.88;;;14.90;67.80;;;;;;5116355;28;20039;-69
2021/05/11 03:39:38;;;;;;;4.90;1.85;;;14.90;67.80;;;;;;5115917;28;20036;-69
2021/05/11 03:42:13;;;;;;;5.45;2.00;;;14.90;68.00;;;;;;5116589;28;20085;-70
2021/05/11 03:44:41;;;;;;;3.28;1.95;;;14.90;67.40;;;;;;5115904;28;20027;-69
2021/05/11 03:47:06;;;;;;;4.47;1.95;;;14.90;68.00;;;;;;5115403;28;20054;-69
2021/05/11 03:49:32;;;;;;;6.20;1.90;;;14.90;68.00;;;;;;5115970;28;20456;-69
2021/05/11 03:51:58;;;;;;;6.38;1.80;;;14.90;68.00;;;;;;5116025;28;20023;-67
2021/05/11 03:54:25;;;;;;;2.72;1.85;;;14.90;67.40;;;;;;5115826;28;20118;-66
2021/05/11 03:56:50;;;;;;;4.95;1.83;;;14.90;67.70;;;;;;5115757;28;20020;-69
2021/05/11 03:59:16;;;;;;;7.60;1.70;;;14.90;67.70;;;;;;5115739;28;20088;-69
2021/05/11 04:01:42;;;;;;;4.70;1.83;;;14.90;67.60;;;;;;5115675;28;20024;-69
2021/05/11 04:04:07;;;;;;;5.93;1.92;;;14.90;67.00;;;;;;5115797;28;20027;-69
2021/05/11 04:06:33;;;;;;;10.13;2.20;;;14.90;67.00;;;;;;5115791;28;20067;-70
2021/05/11 04:12:01;;;;;;;7.40;1.70;;;14.90;67.30;;;;;;5115799;28;20476;-70
2021/05/11 04:17:09;;;;;;;2.97;1.60;;;15.10;66.70;;;;;;5115247;28;20399;-69
2021/05/11 04:19:35;;;;;;;10.15;1.88;;;15.20;66.30;;;;;;5115503;28;20027;-70
2021/05/11 04:22:01;;;;;;;6.68;1.65;;;15.20;66.20;;;;;;5115272;28;20111;-69
2021/05/11 04:24:28;;;;;;;6.68;1.80;;;15.30;65.90;;;;;;5115522;28;20475;-69
2021/05/11 04:26:55;;;;;;;5.38;2.08;;;15.40;65.60;;;;;;5114121;28;20048;-69
2021/05/11 04:29:21;;;;;;;4.20;1.90;;;15.40;64.90;;;;;;5115187;28;20020;-69
2021/05/11 04:31:46;;;;;;;6.47;2.70;;;15.40;65.10;;;;;;5115302;28;20532;-69
2021/05/11 04:34:12;;;;;;;7.10;2.75;;;15.40;65.40;;;;;;5115204;28;20036;-69
2021/05/11 04:36:38;;;;;;;8.13;3.13;;;15.30;65.60;;;;;;5115174;28;20027;-68
2021/05/11 04:39:05;;;;;;;11.50;3.53;;;15.30;65.90;;;;;;5114979;28;20039;-69
2021/05/11 04:41:31;;;;;;;14.30;4.25;;;15.20;66.20;;;;;;5115352;28;20047;-69
2021/05/11 04:44:00;;;;;;;9.82;4.03;;;15.10;66.70;;;;;;5115213;28;20024;-69
2021/05/11 04:46:32;;;;;;;14.15;3.65;;;15.00;66.80;;;;;;5114690;28;20023;-69
2021/05/11 04:48:58;;;;;;;10.70;3.88;;;15.10;67.30;;;;;;5114887;28;20060;-69
2021/05/11 04:51:24;;;;;;;12.80;3.03;;;15.10;67.10;;;;;;5115092;28;20043;-69
2021/05/11 04:53:50;;;;;;;7.85;2.67;;;15.10;67.20;;;;;;5114660;28;20114;-69
2021/05/11 04:56:16;;;;;;;7.75;2.72;;;15.10;67.30;;;;;;5114802;28;20024;-70
2021/05/11 04:58:41;;;;;;;13.60;2.80;;;15.10;67.50;;;;;;5113763;28;20055;-68
2021/05/11 05:01:07;;;;;;;7.60;2.47;;;15.10;67.00;;;;;;5114564;28;20051;-69
2021/05/11 05:03:39;;;;;;;11.20;2.25;;;15.10;67.50;;;;;;5114774;28;20035;-69
2021/05/11 05:06:05;;;;;;;16.98;2.97;;;15.10;67.20;;;;;;5114745;28;20028;-69
2021/05/11 05:08:31;;;;;;;17.35;3.45;;;15.10;67.30;;;;;;5114124;28;20108;-69
2021/05/11 05:10:57;;;;;;;16.13;4.10;;;15.10;67.50;;;;;;5114506;28;20019;-69
2021/05/11 05:13:25;;;;;;;21.30;4.32;;;15.20;67.90;;;;;;5114189;28;20478;-69
2021/05/11 05:15:55;;;;;;;21.45;4.55;;;15.20;68.10;;;;;;5114734;28;20383;-70
2021/05/11 05:18:22;;;;;;;28.67;4.53;;;15.30;67.90;;;;;;5114223;28;20031;-68
2021/05/11 05:20:50;;;;;;;25.42;3.72;;;15.30;67.90;;;;;;5114361;28;20023;-69
2021/05/11 05:23:16;;;;;;;19.88;3.97;;;15.40;67.30;;;;;;5114383;28;20031;-69
2021/05/11 05:26:12;;;;;;;13.02;2.55;;;15.40;67.40;;;;;;5114177;28;20058;-69
2021/05/11 05:28:40;;;;;;;;;;;15.50;67.20;;;;;;5114108;28;20431;-69
2021/05/11 05:31:07;;;;;;;8.70;2.63;;;15.40;67.10;;;;;;5114005;28;19911;-69
2021/05/11 05:33:34;;;;;;;14.00;2.58;;;15.50;67.30;;;;;;5114305;28;20085;-69
2021/05/11 05:36:00;;;;;;;10.00;2.40;;;15.50;67.60;;;;;;5114102;28;20464;-69
2021/05/11 05:38:28;;;;;;;16.35;2.65;;;15.60;67.20;;;;;;5113932;28;20031;-68
2021/05/11 05:41:01;;;;;;;23.42;2.80;;;15.60;68.00;;;;;;5114102;28;20038;-69
2021/05/11 05:43:27;;;;;;;8.13;2.40;;;15.60;67.80;;;;;;5114156;28;20037;-69
2021/05/11 05:45:53;;;;;;;7.47;2.08;;;15.70;67.70;;;;;;5113781;28;20020;-69
2021/05/11 05:48:20;;;;;;;7.65;2.10;;;15.70;67.70;;;;;;5113700;28;20112;-69
2021/05/11 05:50:48;;;;;;;6.15;2.17;;;15.80;67.80;;;;;;5113738;28;20034;-69
2021/05/11 05:53:22;;;;;;;6.35;1.92;;;15.90;67.60;;;;;;5113737;28;20031;-69
2021/05/11 05:55:48;;;;;;;8.73;2.45;;;15.90;68.00;;;;;;5113908;28;20084;-70
2021/05/11 05:58:13;;;;;;;9.35;2.42;;;16.00;68.70;;;;;;5113885;28;20111;-69
2021/05/11 06:00:39;;;;;;;12.30;3.30;;;16.00;67.60;;;;;;5114005;28;20046;-69
2021/05/11 06:03:20;;;;;;;7.88;2.33;;;16.00;67.70;;;;;;5113240;28;20391;-67
2021/05/11 06:05:46;;;;;;;11.05;2.50;;;16.10;67.80;;;;;;5112078;28;20023;-68
2021/05/11 06:08:12;;;;;;;5.78;2.40;;;16.20;68.00;;;;;;5113090;28;20056;-70
2021/05/11 06:10:38;;;;;;;16.15;2.90;;;16.30;67.90;;;;;;5112610;28;20476;-69
2021/05/11 06:13:11;;;;;;;9.32;2.28;;;16.30;67.90;;;;;;5111892;28;20173;-69
2021/05/11 06:18:21;;;;;;;4.45;2.00;;;16.50;68.00;;;;;;5113352;28;20548;-69
2021/05/11 06:20:46;;;;;;;5.95;1.90;;;16.60;67.80;;;;;;5112924;28;20032;-69
2021/05/11 06:23:12;;;;;;;7.60;4.10;;;16.60;67.60;;;;;;5113046;28;20035;-69
2021/05/11 06:25:42;;;;;;;8.05;2.72;;;16.80;66.70;;;;;;5112013;28;20028;-68
2021/05/11 06:28:08;;;;;;;6.53;1.55;;;16.80;65.60;;;;;;5112962;28;20028;-69
2021/05/11 06:30:34;;;;;;;8.05;1.55;;;16.90;63.90;;;;;;5113140;28;20533;-69
2021/05/11 06:32:59;;;;;;;7.53;1.75;;;17.00;63.30;;;;;;5113133;28;20020;-69
2021/05/11 06:35:27;;;;;;;9.85;1.77;;;17.10;63.10;;;;;;5094914;28;20039;-69
2021/05/11 06:37:59;;;;;;;8.32;1.70;;;17.20;62.70;;;;;;5113060;28;20445;-69
2021/05/11 06:40:27;;;;;;;3.42;1.52;;;17.30;62.10;;;;;;5112010;28;20028;-69
2021/05/11 06:42:53;;;;;;;5.32;1.77;;;17.40;61.60;;;;;;5111422;28;20038;-69
2021/05/11 06:50:42;;;;;;;6.38;1.50;;;17.70;61.30;;;;;;5113003;28;20089;-69
2021/05/11 06:55:33;;;;;;;3.30;1.40;;;17.80;62.10;;;;;;5113123;28;20039;-68
2021/05/11 06:58:03;;;;;;;6.97;1.40;;;17.90;61.10;;;;;;5112867;28;20031;-69
2021/05/11 07:00:29;;;;;;;4.65;1.60;;;18.00;61.00;;;;;;5112970;28;20488;-68
2021/05/11 07:02:55;;;;;;;5.35;1.23;;;18.00;60.10;;;;;;5112677;28;20031;-68
2021/05/11 07:05:20;;;;;;;3.55;1.48;;;18.20;61.90;;;;;;5112769;28;20118;-67
2021/05/11 07:07:59;;;;;;;6.15;1.50;;;18.20;57.90;;;;;;5112631;28;20086;-68
2021/05/11 07:10:30;;;;;;;4.70;1.30;;;18.30;58.30;;;;;;5111916;28;20030;-68
2021/05/11 07:13:11;;;;;;;6.03;1.48;;;18.40;58.30;;;;;;5112229;28;20443;-68
2021/05/11 07:15:40;;;;;;;6.95;2.00;;;18.50;58.70;;;;;;5112623;28;20107;-68
2021/05/11 07:18:17;;;;;;;8.38;1.50;;;18.60;57.80;;;;;;5112824;28;20027;-68
2021/05/11 07:20:54;;;;;;;7.03;1.50;;;18.60;57.20;;;;;;5113064;28;20046;-67
2021/05/11 07:23:21;;;;;;;9.70;1.40;;;18.80;56.80;;;;;;5114544;28;20034;-66
2021/05/11 07:26:10;;;;;;;8.93;1.50;;;18.80;55.80;;;;;;5115393;28;20032;-65
2021/05/11 07:31:08;;;;;;;8.52;1.75;;;19.00;56.00;;;;;;5116283;28;20502;-66
2021/05/11 07:33:46;;;;;;;5.72;1.60;;;19.10;54.80;;;;;;5115967;28;20086;-65
2021/05/11 07:36:12;;;;;;;5.10;1.67;;;19.20;54.40;;;;;;5116240;28;20020;-66
2021/05/11 07:38:39;;;;;;;8.85;1.40;;;19.30;54.90;;;;;;5116140;28;20030;-67
2021/05/11 07:41:06;;;;;;;5.68;1.20;;;19.30;54.80;;;;;;5116584;28;20150;-67
2021/05/11 07:43:33;;;;;;;8.20;1.65;;;19.40;54.50;;;;;;5115696;28;20016;-65
2021/05/11 07:51:39;;;;;;;3.58;1.60;;;19.70;55.20;;;;;;5116128;28;20065;-65
2021/05/11 08:05:24;;;;;;;5.80;1.92;;;20.30;53.50;;;;;;5115409;28;20030;-65
2021/05/11 08:15:54;;;;;;;6.55;1.63;;;20.60;50.60;;;;;;5103887;27;20088;-64
2021/05/11 08:18:37;;;;;;;2.92;1.70;;;20.70;50.70;;;;;;5115335;28;20024;-64
2021/05/11 08:29:15;;;;;;;4.40;1.88;;;21.00;50.70;;;;;;5115060;28;20031;-65
2021/05/11 08:31:41;;;;;;;6.07;1.70;;;21.10;50.40;;;;;;5115114;28;20460;-65
2021/05/11 08:34:06;;;;;;;6.93;2.25;;;21.20;49.40;;;;;;5114745;28;20035;-65
2021/05/11 08:36:32;;;;;;;6.72;1.85;;;21.20;51.40;;;;;;5114631;28;20114;-65
2021/05/11 08:38:59;;;;;;;6.43;2.17;;;21.20;50.20;;;;;;5114407;28;20027;-66
2021/05/11 08:41:26;;;;;;;3.53;1.77;;;;;;;;;;5115081;28;20019;-66
2021/05/11 08:43:51;;;;;;;7.10;1.92;;;21.40;50.90;;;;;;5115033;28;20028;-65
2021/05/11 08:46:17;;;;;;;9.25;1.83;;;21.50;52.70;;;;;;5114305;28;20495;-67
2021/05/11 08:48:43;;;;;;;10.90;2.13;;;21.70;52.00;;;;;;5113905;28;20031;-68
2021/05/11 08:51:25;;;;;;;4.93;1.75;;;21.80;50.00;;;;;;5114751;28;20472;-68
2021/05/11 10:47:00;;;;;;;7.22;2.45;;;23.00;49.60;;;;;;5113093;28;20450;-69
2021/05/11 10:49:28;;;;;;;14.35;2.63;;;22.90;50.20;;;;;;5112785;28;20029;-69
2021/05/11 10:55:16;;;;;;;8.32;2.60;;;22.90;51.70;;;;;;5110522;28;20035;-67
2021/05/11 10:58:04;;;;;;;12.27;2.75;;;22.90;51.90;;;;;;5114610;28;20499;-68
2021/05/11 11:00:41;;;;;;;8.52;2.80;;;23.00;53.00;;;;;;5117352;28;20480;-68
2021/05/11 11:03:39;;;;;;;11.15;3.13;;;23.00;52.90;;;;;;5117321;28;20413;-68
2021/05/11 11:06:04;;;;;;;10.98;2.70;;;23.00;52.40;;;;;;5104756;28;20034;-68
2021/05/11 11:08:43;;;;;;;7.93;2.92;;;23.10;52.90;;;;;;5115613;28;20146;-69
2021/05/11 11:11:16;;;;;;;6.78;2.78;;;23.10;52.40;;;;;;5117127;28;20031;-69
2021/05/11 11:13:42;;;;;;;6.88;2.65;;;23.20;53.10;;;;;;5116984;28;20040;-68
2021/05/11 11:16:08;;;;;;;12.85;3.10;;;23.20;52.60;;;;;;5116997;28;20020;-68
2021/05/11 11:18:34;;;;;;;11.57;3.60;;;23.30;53.90;;;;;;5116827;28;20068;-68
2021/05/11 11:21:20;;;;;;;5.38;2.33;;;23.30;51.00;;;;;;5116033;28;20028;-70
2021/05/11 11:23:54;;;;;;;11.35;2.45;;;23.40;50.60;;;;;;5116588;28;20059;-68
2021/05/11 11:26:38;;;;;;;10.23;2.78;;;23.50;52.70;;;;;;5116276;28;20015;-68
2021/05/11 11:29:22;;;;;;;8.77;2.65;;;23.60;50.50;;;;;;5116787;28;20076;-69
2021/05/11 11:31:49;;;;;;;12.40;2.60;;;23.80;51.10;;;;;;5116628;28;20045;-68
2021/05/11 11:34:22;;;;;;;8.45;2.80;;;23.90;52.40;;;;;;5116340;28;20036;-68
2021/05/11 11:36:55;;;;;;;8.95;2.85;;;24.00;51.90;;;;;;5116369;28;20428;-68
2021/05/11 11:39:23;;;;;;;9.77;2.72;;;24.20;52.70;;;;;;5116200;28;20024;-68
2021/05/11 11:41:51;;;;;;;12.23;3.08;;;24.30;52.60;;;;;;5116459;28;20430;-68
2021/05/11 11:44:19;;;;;;;8.60;2.67;;;24.30;50.90;;;;;;5116083;28;20080;-69
2021/05/11 11:46:57;;;;;;;9.18;3.17;;;24.40;50.70;;;;;;5116121;28;20502;-67
2021/05/11 11:49:28;;;;;;;12.95;2.13;;;24.40;50.30;;;;;;5116151;28;20058;-68
2021/05/11 11:51:59;;;;;;;4.88;2.40;;;24.40;48.60;;;;;;5116008;28;20471;-67
2021/05/11 11:54:42;;;;;;;9.43;2.42;;;24.40;48.90;;;;;;5114368;28;20384;-68
2021/05/11 12:00:15;;;;;;;11.50;2.22;;;24.40;48.20;;;;;;5115285;28;20024;-68
2021/05/11 12:03:15;;;;;;;6.25;2.13;;;24.40;49.40;;;;;;5116021;28;20024;-68
2021/05/11 12:05:58;;;;;;;5.28;2.10;;;24.40;49.00;;;;;;5115774;28;20034;-66
2021/05/11 12:08:29;;;;;;;9.93;2.15;;;24.40;47.80;;;;;;5114906;28;20488;-67
2021/05/11 12:10:58;;;;;;;5.87;2.00;;;24.40;45.80;;;;;;5115387;28;20051;-66
2021/05/11 12:13:44;;;;;;;6.90;1.90;;;24.30;46.50;;;;;;5115072;28;20081;-67
2021/05/11 12:16:10;;;;;;;5.20;1.90;;;24.20;46.00;;;;;;5114384;28;20027;-68
2021/05/11 12:18:44;;;;;;;5.43;2.05;;;24.20;46.90;;;;;;5115948;28;20032;-68
2021/05/11 12:21:10;;;;;;;10.38;2.20;;;24.20;45.70;;;;;;5115704;28;20031;-68
2021/05/11 12:23:36;;;;;;;4.43;2.00;;;24.10;47.10;;;;;;5115737;28;20023;-68
2021/05/11 12:26:06;;;;;;;10.93;2.08;;;24.10;47.50;;;;;;5115481;28;20531;-67
2021/05/11 12:28:43;;;;;;;3.63;1.73;;;24.00;47.20;;;;;;5115524;28;20027;-68
2021/05/11 12:31:10;;;;;;;8.93;2.67;;;24.00;47.90;;;;;;5115374;28;20103;-67
2021/05/11 12:33:40;;;;;;;7.18;2.10;;;24.00;49.20;;;;;;5115194;28;20384;-67
2021/05/11 12:36:27;;;;;;;4.90;2.00;;;24.10;50.10;;;;;;5115317;28;20044;-67
2021/05/11 12:39:16;;;;;;;6.30;2.13;;;24.10;49.50;;;;;;5115272;28;20020;-67
2021/05/11 12:41:42;;;;;;;4.57;1.90;;;24.10;45.10;;;;;;5115097;28;20070;-67
2021/05/11 12:44:08;;;;;;;6.25;1.80;;;24.10;46.00;;;;;;5114876;28;20487;-67
2021/05/11 12:46:37;;;;;;;7.03;2.13;;;24.10;45.10;;;;;;5114890;28;20020;-66
2021/05/11 12:49:16;;;;;;;7.40;2.10;;;24.10;45.80;;;;;;5114976;28;20600;-67
2021/05/11 12:51:45;;;;;;;6.18;2.42;;;24.10;44.80;;;;;;5115080;28;20065;-68
2021/05/11 12:54:28;;;;;;;5.13;1.70;;;24.10;47.70;;;;;;5115177;28;20043;-70
2021/05/11 12:59:40;;;;;;;5.72;1.90;;;24.20;46.20;;;;;;5111693;28;20032;-69
2021/05/11 13:35:24;;;;;;;10.63;2.38;;;25.80;44.20;;;;;;5113456;28;20028;-70
2021/05/11 13:37:50;;;;;;;7.35;1.70;;;25.80;44.50;;;;;;5113371;28;20058;-70
2021/05/11 13:40:15;;;;;;;8.07;3.08;;;25.80;45.30;;;;;;5112437;28;20388;-70
2021/05/11 13:42:41;;;;;;;7.63;1.80;;;25.80;45.10;;;;;;5113713;28;20015;-70
2021/05/11 13:45:07;;;;;;;4.63;1.83;;;25.90;45.00;;;;;;5113189;28;20024;-70
2021/05/11 13:47:33;;;;;;;6.32;2.08;;;25.90;44.90;;;;;;5113177;28;20024;-70
2021/05/11 13:50:02;;;;;;;5.15;1.98;;;26.00;45.60;;;;;;5113517;28;20026;-68
2021/05/11 13:52:28;;;;;;;9.55;1.90;;;26.00;46.40;;;;;;5113710;28;20120;-70
2021/05/11 13:55:01;;;;;;;7.28;1.90;;;26.10;44.40;;;;;;5113610;28;20069;-71
2021/05/11 14:02:48;;;;;;;6.05;1.70;;;26.20;43.20;;;;;;5113523;28;20168;-71
2021/05/11 14:05:14;;;;;;;5.32;2.42;;;26.20;42.60;;;;;;5113100;28;20024;-71
2021/05/11 14:07:40;;;;;;;5.63;2.10;;;26.10;44.70;;;;;;5113206;28;20049;-71
2021/05/11 14:10:07;;;;;;;8.70;1.88;;;26.10;45.90;;;;;;5113641;28;20024;-71
2021/05/11 14:12:32;;;;;;;11.85;2.30;;;26.10;46.50;;;;;;5113226;28;20028;-71
2021/05/11 14:14:59;;;;;;;7.57;2.28;;;26.00;47.60;;;;;;5113415;28;20031;-70
2021/05/11 14:17:25;;;;;;;5.93;2.00;;;25.90;48.20;;;;;;5113449;28;20364;-71
2021/05/11 14:19:51;;;;;;;6.55;2.10;;;25.90;47.40;;;;;;5113209;28;20034;-73
2021/05/11 14:22:19;;;;;;;9.88;2.28;;;25.80;48.00;;;;;;5113166;28;20015;-72
2021/05/11 15:01:05;;;;;;;8.80;3.08;;;24.50;49.10;;;;;;5130649;27;20332;-72
2021/05/11 15:03:31;;;;;;;18.92;5.70;;;24.30;49.80;;;;;;5131255;28;20027;-73
2021/05/11 15:05:57;;;;;;;23.60;6.28;;;24.30;51.90;;;;;;5131184;28;20023;-73
2021/05/11 15:08:22;;;;;;;13.75;3.90;;;24.20;51.80;;;;;;5130815;28;20028;-72
2021/05/11 15:10:49;;;;;;;8.15;3.30;;;24.20;51.10;;;;;;5131188;27;20031;-73
2021/05/11 15:13:16;;;;;;;14.70;4.00;;;24.20;51.40;;;;;;5131108;27;20055;-73
2021/05/11 15:15:47;;;;;;;13.30;3.53;;;24.20;51.40;;;;;;5130691;28;20047;-73
2021/05/11 15:18:12;;;;;;;9.85;3.13;;;24.20;52.20;;;;;;5130987;27;20012;-72
2021/05/11 15:20:38;;;;;;;9.80;3.10;;;24.20;52.90;;;;;;5131056;27;20068;-72
2021/05/11 15:23:04;;;;;;;10.95;3.88;;;24.20;53.00;;;;;;5130591;27;20416;-73
2021/05/11 15:25:30;;;;;;;14.18;3.55;;;24.10;53.00;;;;;;5130526;27;20031;-73
2021/05/11 15:27:57;;;;;;;6.68;2.85;;;24.10;53.20;;;;;;5130344;27;20463;-73
2021/05/11 15:30:25;;;;;;;6.85;2.55;;;24.00;52.70;;;;;;5130604;27;20031;-73
2021/05/11 15:32:56;;;;;;;9.23;2.75;;;23.90;52.40;;;;;;5130874;27;20100;-73
2021/05/11 15:35:33;;;;;;;11.00;3.13;;;23.90;53.60;;;;;;5130617;27;20027;-71
2021/05/11 15:38:01;;;;;;;17.80;3.72;;;23.90;53.60;;;;;;5129789;27;20027;-71
2021/05/11 15:40:33;;;;;;;10.70;3.67;;;23.90;53.30;;;;;;5129323;27;20487;-69
2021/05/11 15:42:59;;;;;;;12.80;3.08;;;23.80;53.80;;;;;;5129094;27;20496;-68
2021/05/11 15:45:26;;;;;;;13.73;3.35;;;23.80;54.00;;;;;;5127358;27;20024;-70
2021/05/11 15:47:53;;;;;;;17.08;3.97;;;23.80;54.50;;;;;;5127188;27;20031;-69
2021/05/11 15:50:25;;;;;;;10.23;3.13;;;23.70;54.40;;;;;;5127563;28;20099;-69
2021/05/11 15:52:52;;;;;;;18.40;2.92;;;23.60;54.30;;;;;;5129600;27;20108;-68
2021/05/11 15:55:18;;;;;;;12.30;3.47;;;23.60;54.80;;;;;;5130464;27;20391;-67
2021/05/11 15:57:44;;;;;;;9.05;3.33;;;23.60;55.40;;;;;;5130055;27;20089;-65
2021/05/11 16:00:10;;;;;;;13.60;3.25;;;23.60;55.70;;;;;;5129931;27;20381;-66
2021/05/11 16:02:36;;;;;;;13.23;3.42;;;23.50;55.90;;;;;;5130117;27;20027;-66
2021/05/11 16:05:03;;;;;;;12.60;3.35;;;23.50;55.60;;;;;;5128414;27;20024;-67
2021/05/11 16:07:29;;;;;;;13.48;3.30;;;23.50;55.40;;;;;;5129397;27;20027;-66
2021/05/11 16:09:54;;;;;;;9.38;3.40;;;23.40;55.60;;;;;;5129131;27;20478;-67
2021/05/11 16:12:21;;;;;;;12.68;3.25;;;23.40;56.00;;;;;;5116333;27;20051;-69
2021/05/11 16:14:46;;;;;;;10.80;2.90;;;23.30;55.70;;;;;;5115352;28;20053;-66
2021/05/11 16:17:12;;;;;;;13.32;3.70;;;23.30;56.10;;;;;;5114975;28;20024;-67
2021/05/11 16:19:38;;;;;;;10.60;3.40;;;23.20;55.70;;;;;;5113871;28;20085;-70
2021/05/11 16:22:03;;;;;;;10.27;3.10;;;23.10;55.30;;;;;;5114351;28;20015;-67
2021/05/11 16:24:29;;;;;;;13.50;3.53;;;23.10;55.90;;;;;;5114206;28;20084;-68
2021/05/11 16:26:55;;;;;;;10.35;3.28;;;23.00;55.40;;;;;;5115136;28;20026;-65
2021/05/11 16:29:21;;;;;;;10.45;3.60;;;22.90;55.30;;;;;;5114519;28;20020;-66
2021/05/11 16:31:47;;;;;;;11.38;2.97;;;22.90;55.70;;;;;;5114464;28;20034;-67
2021/05/11 16:34:14;;;;;;;6.88;3.20;;;22.90;55.80;;;;;;5114738;28;20380;-66
2021/05/11 16:36:40;;;;;;;10.07;3.08;;;22.90;55.20;;;;;;5115571;28;20048;-67
2021/05/11 16:39:06;;;;;;;9.98;3.67;;;22.80;55.10;;;;;;5114903;28;20074;-67
2021/05/11 16:41:31;;;;;;;10.50;3.10;;;22.80;55.30;;;;;;5115251;28;20015;-68
2021/05/11 16:43:58;;;;;;;7.85;3.10;;;22.80;54.70;;;;;;5112352;28;20035;-66
2021/05/11 16:46:24;;;;;;;12.40;3.38;;;22.70;55.70;;;;;;5114804;28;20016;-67
2021/05/11 16:48:50;;;;;;;11.55;3.10;;;22.70;56.20;;;;;;5115183;28;20027;-67
2021/05/11 16:51:16;;;;;;;10.68;3.38;;;22.60;56.70;;;;;;5115560;27;20016;-68
2021/05/11 16:53:41;;;;;;;12.68;3.97;;;22.60;57.30;;;;;;5114914;28;20024;-70
2021/05/11 16:56:09;;;;;;;14.73;4.07;;;22.50;57.10;;;;;;5114650;27;20028;-68
2021/05/11 16:58:36;;;;;;;17.48;4.07;;;22.40;57.00;;;;;;5113014;28;20027;-69
2021/05/11 17:01:02;;;;;;;15.43;3.63;;;22.40;57.40;;;;;;5109871;28;20471;-67
2021/05/11 17:03:27;;;;;;;9.15;3.40;;;22.40;58.40;;;;;;5110834;28;20031;-67
2021/05/11 17:05:53;;;;;;;15.38;3.67;;;22.30;58.70;;;;;;5114481;28;20024;-66
2021/05/11 17:08:19;;;;;;;11.38;3.75;;;22.30;59.70;;;;;;5113108;28;20019;-68
2021/05/11 17:10:45;;;;;;;12.60;4.03;;;22.30;59.80;;;;;;5113373;28;20020;-67
2021/05/11 17:13:11;;;;;;;10.15;3.70;;;22.30;59.70;;;;;;5113418;28;20368;-67
2021/05/11 17:15:36;;;;;;;12.63;4.10;;;22.20;59.40;;;;;;5109559;28;20024;-69
2021/05/11 17:18:05;;;;;;;15.10;3.85;;;22.20;60.10;;;;;;5112071;28;20027;-66
2021/05/11 17:20:34;;;;;;;11.30;3.70;;;22.10;60.20;;;;;;5112100;28;20031;-67
2021/05/11 17:23:00;;;;;;;11.60;3.47;;;22.10;60.50;;;;;;5112642;27;20169;-67
2021/05/11 17:25:26;;;;;;;12.27;4.40;;;22.10;60.90;;;;;;5113707;28;20614;-71
2021/05/11 17:27:52;;;;;;;9.65;4.00;;;22.10;61.10;;;;;;5113602;28;20027;-69
2021/05/11 17:30:20;;;;;;;15.68;3.92;;;22.00;61.90;;;;;;5113131;28;20023;-69
2021/05/11 17:32:47;;;;;;;11.65;4.13;;;22.10;62.30;;;;;;5114187;28;20047;-67
2021/05/11 17:35:15;;;;;;;17.20;5.20;;;22.10;62.70;;;;;;5113771;28;20022;-67
2021/05/11 17:37:42;;;;;;;15.30;4.60;;;22.10;63.60;;;;;;5113848;28;20106;-67
2021/05/11 17:40:17;;;;;;;16.13;5.30;;;22.00;65.50;;;;;;5112606;28;20043;-70
2021/05/11 17:42:43;;;;;;;10.85;4.50;;;22.00;66.90;;;;;;5113182;28;20480;-68
2021/05/11 17:45:10;;;;;;;17.30;5.07;;;22.00;67.60;;;;;;5113354;28;20442;-66